createdAt,value
2023-02-02T00:01:32.418Z,3.03
2023-02-02T00:03:59.956Z,2.53
2023-02-02T00:06:29.912Z,3.53
2023-02-02T00:08:59.544Z,3.27
2023-02-02T00:11:27.165Z,3.60
2023-02-02T00:13:54.339Z,2.77
2023-02-02T00:16:27.359Z,2.73
2023-02-02T00:19:09.419Z,3.07
2023-02-02T00:21:38.149Z,3.03
2023-02-02T00:24:07.949Z,3.07
2023-02-02T00:26:36.139Z,3.97
2023-02-02T00:29:04.992Z,2.57
2023-02-02T00:31:32.144Z,2.70
2023-02-02T00:33:59.855Z,2.90
2023-02-02T00:36:26.937Z,3.17
2023-02-02T00:38:53.964Z,2.20
2023-02-02T00:41:20.920Z,3.27
2023-02-02T00:44:10.683Z,3.17
2023-02-02T00:46:40.826Z,2.87
2023-02-02T00:49:08.868Z,2.47
2023-02-02T00:51:37.114Z,1.93
2023-02-02T00:54:05.090Z,3.03
2023-02-02T00:56:32.208Z,2.90
2023-02-02T00:58:59.243Z,2.60
2023-02-02T01:01:26.251Z,2.77
2023-02-02T01:03:53.245Z,2.83
2023-02-02T01:06:20.332Z,2.73
2023-02-02T01:08:47.507Z,2.20
2023-02-02T01:11:14.530Z,2.10
2023-02-02T01:13:41.743Z,2.80
2023-02-02T01:16:09.282Z,2.80
2023-02-02T01:18:36.251Z,2.60
2023-02-02T01:21:09.631Z,2.77
2023-02-02T01:23:38.150Z,2.83
2023-02-02T01:26:09.187Z,2.47
2023-02-02T01:28:37.683Z,3.20
2023-02-02T01:31:14.710Z,3.27
2023-02-02T01:33:43.669Z,2.97
2023-02-02T01:36:15.296Z,3.10
2023-02-02T01:38:42.729Z,3.30
2023-02-02T01:41:15.002Z,3.67
2023-02-02T01:43:41.852Z,2.57
2023-02-02T01:46:23.258Z,3.03
2023-02-02T01:48:58.271Z,3.60
2023-02-02T01:51:44.031Z,2.97
2023-02-02T01:54:24.290Z,3.57
2023-02-02T01:56:59.011Z,4.00
2023-02-02T01:59:27.598Z,3.10
2023-02-02T02:01:55.788Z,3.00
2023-02-02T02:04:24.821Z,2.20
2023-02-02T02:06:53.567Z,3.40
2023-02-02T02:09:21.131Z,3.70
2023-02-02T02:11:48.165Z,2.77
2023-02-02T02:14:35.136Z,3.10
2023-02-02T02:17:34.916Z,2.60
2023-02-02T02:21:14.033Z,3.07
2023-02-02T02:24:48.106Z,3.90
2023-02-02T02:27:46.033Z,1.73
2023-02-02T02:30:31.292Z,2.60
2023-02-02T02:33:28.139Z,3.13
2023-02-02T02:36:14.613Z,3.67
2023-02-02T02:39:14.430Z,4.97
2023-02-02T02:41:49.905Z,2.57
2023-02-02T02:44:19.976Z,2.73
2023-02-02T02:46:48.284Z,2.93
2023-02-02T02:49:15.215Z,2.77
2023-02-02T02:51:54.327Z,3.00
2023-02-02T02:54:31.549Z,3.90
2023-02-02T02:57:12.434Z,4.67
2023-02-02T03:00:29.127Z,3.77
2023-02-02T03:03:13.000Z,3.80
2023-02-02T03:06:44.063Z,2.27
2023-02-02T03:09:15.825Z,2.23
2023-02-02T03:11:43.140Z,4.00
2023-02-02T03:14:10.269Z,2.57
2023-02-02T03:16:37.622Z,3.50
2023-02-02T03:19:06.647Z,2.43
2023-02-02T03:21:34.196Z,2.00
2023-02-02T03:24:01.574Z,3.03
2023-02-02T03:26:29.018Z,2.97
2023-02-02T03:28:59.985Z,3.00
2023-02-02T03:31:28.153Z,3.57
2023-02-02T03:33:56.011Z,3.30
2023-02-02T03:36:23.574Z,5.23
2023-02-02T03:38:50.468Z,2.77
2023-02-02T03:41:17.374Z,2.70
2023-02-02T03:43:44.281Z,3.27
2023-02-02T03:46:11.366Z,3.17
2023-02-02T03:48:39.162Z,3.80
2023-02-02T03:51:15.543Z,4.80
2023-02-02T03:53:44.378Z,4.20
2023-02-02T03:56:11.482Z,2.63
2023-02-02T03:58:38.386Z,3.53
2023-02-02T04:01:11.953Z,2.37
2023-02-02T04:03:39.168Z,3.47
2023-02-02T04:06:06.287Z,3.50
2023-02-02T04:08:34.065Z,4.03
2023-02-02T04:11:01.366Z,3.30
2023-02-02T04:13:28.368Z,2.63
2023-02-02T04:16:00.947Z,3.27
2023-02-02T04:18:29.289Z,3.40
2023-02-02T04:21:01.379Z,3.00
2023-02-02T04:23:29.353Z,2.70
2023-02-02T04:25:57.052Z,3.07
2023-02-02T04:28:24.701Z,2.93
2023-02-02T04:30:54.346Z,3.53
2023-02-02T04:33:23.187Z,2.70
2023-02-02T04:35:50.301Z,2.50
2023-02-02T04:38:17.395Z,3.77
2023-02-02T04:40:46.973Z,2.60
2023-02-02T04:43:14.397Z,3.00
2023-02-02T04:45:42.342Z,2.90
2023-02-02T04:48:09.732Z,3.40
2023-02-02T04:50:36.813Z,6.00
2023-02-02T04:53:05.023Z,3.00
2023-02-02T04:55:36.377Z,3.20
2023-02-02T04:58:03.520Z,2.93
2023-02-02T05:00:30.501Z,2.90
2023-02-02T05:02:57.400Z,2.70
2023-02-02T05:05:24.553Z,3.53
2023-02-02T05:07:51.613Z,3.90
2023-02-02T05:10:18.538Z,3.80
2023-02-02T05:12:45.567Z,3.90
2023-02-02T05:15:12.444Z,2.97
2023-02-02T05:17:39.460Z,2.53
2023-02-02T05:20:06.901Z,3.20
2023-02-02T05:22:35.153Z,3.17
2023-02-02T05:25:02.357Z,3.20
2023-02-02T05:27:29.271Z,3.37
2023-02-02T05:29:56.191Z,4.13
2023-02-02T05:32:23.250Z,3.57
2023-02-02T05:34:50.165Z,3.10
2023-02-02T05:37:17.295Z,3.40
2023-02-02T05:39:44.227Z,3.13
2023-02-02T05:42:11.207Z,3.57
2023-02-02T05:44:38.130Z,3.30
2023-02-02T05:47:05.118Z,3.73
2023-02-02T05:49:32.081Z,4.47
2023-02-02T05:51:59.599Z,3.40
2023-02-02T05:54:26.524Z,4.60
2023-02-02T05:56:55.752Z,3.63
2023-02-02T05:59:23.385Z,3.57
2023-02-02T06:01:50.451Z,4.40
2023-02-02T06:04:17.638Z,4.40
2023-02-02T06:06:44.819Z,3.13
2023-02-02T06:09:11.813Z,4.10
2023-02-02T06:11:39.554Z,4.40
2023-02-02T06:14:07.613Z,3.40
2023-02-02T06:16:34.775Z,4.40
2023-02-02T06:19:01.742Z,3.43
2023-02-02T06:21:31.169Z,3.43
2023-02-02T06:23:59.432Z,3.20
2023-02-02T06:26:27.058Z,3.53
2023-02-02T06:28:54.647Z,2.77
2023-02-02T06:31:22.336Z,2.60
2023-02-02T06:33:55.447Z,3.23
2023-02-02T06:36:24.071Z,2.20
2023-02-02T06:38:53.465Z,2.93
2023-02-02T06:41:21.180Z,1.70
2023-02-02T06:43:49.515Z,1.57
2023-02-02T06:46:17.109Z,6.20
2023-02-02T06:48:44.109Z,2.07
2023-02-02T06:51:11.082Z,1.33
2023-02-02T06:53:37.981Z,1.10
2023-02-02T06:56:07.461Z,1.60
2023-02-02T06:58:34.829Z,1.50
2023-02-02T07:01:08.409Z,1.30
2023-02-02T07:03:35.749Z,1.57
2023-02-02T07:06:18.885Z,1.77
2023-02-02T07:08:59.556Z,1.60
2023-02-02T07:11:31.151Z,2.27
2023-02-02T07:13:58.535Z,1.40
2023-02-02T07:16:25.619Z,1.57
2023-02-02T07:18:52.900Z,1.80
2023-02-02T07:21:29.325Z,1.63
2023-02-02T07:23:56.300Z,2.13
2023-02-02T07:26:23.522Z,1.60
2023-02-02T07:28:51.981Z,2.43
2023-02-02T07:31:25.945Z,1.87
2023-02-02T07:33:54.192Z,1.83
2023-02-02T07:36:23.753Z,1.50
2023-02-02T07:38:57.412Z,2.07
2023-02-02T07:41:24.661Z,3.80
2023-02-02T07:43:52.061Z,2.47
2023-02-02T07:46:20.133Z,2.20
2023-02-02T07:48:47.261Z,1.10
2023-02-02T07:51:17.520Z,2.67
2023-02-02T07:53:50.751Z,2.53
2023-02-02T07:56:24.561Z,2.50
2023-02-02T07:58:56.565Z,2.50
2023-02-02T08:01:26.407Z,2.17
2023-02-02T08:03:55.881Z,2.60
2023-02-02T08:06:29.833Z,2.07
2023-02-02T08:08:57.192Z,1.67
2023-02-02T08:11:26.312Z,1.80
2023-02-02T08:13:56.982Z,2.20
2023-02-02T08:16:25.427Z,1.30
2023-02-02T08:18:52.606Z,1.67
2023-02-02T08:21:20.405Z,1.47
2023-02-02T08:23:48.014Z,1.90
2023-02-02T08:26:16.894Z,1.73
2023-02-02T08:28:46.324Z,1.90
2023-02-02T08:31:21.605Z,2.03
2023-02-02T08:33:48.933Z,1.60
2023-02-02T08:36:19.327Z,1.97
2023-02-02T08:38:46.938Z,1.73
2023-02-02T08:41:20.675Z,1.77
2023-02-02T08:43:47.617Z,1.70
2023-02-02T08:46:17.221Z,2.30
2023-02-02T08:48:44.905Z,1.93
2023-02-02T08:51:15.202Z,1.63
2023-02-02T08:53:43.064Z,1.50
2023-02-02T08:56:13.553Z,1.80
2023-02-02T08:58:54.040Z,2.17
2023-02-02T09:01:32.809Z,2.43
2023-02-02T09:04:06.418Z,1.43
2023-02-02T09:06:38.978Z,1.80
2023-02-02T09:09:09.449Z,1.70
2023-02-02T09:11:37.644Z,1.80
2023-02-02T09:14:06.382Z,1.70
2023-02-02T09:16:35.271Z,1.80
2023-02-02T09:19:02.895Z,1.07
2023-02-02T09:21:29.948Z,1.77
2023-02-02T09:23:57.194Z,1.67
2023-02-02T09:26:27.806Z,2.10
2023-02-02T09:29:05.618Z,1.43
2023-02-02T09:31:37.634Z,1.60
2023-02-02T09:34:08.283Z,1.23
2023-02-02T09:36:35.725Z,1.80
2023-02-02T09:39:03.590Z,1.63
2023-02-02T09:41:39.461Z,1.80
2023-02-02T09:44:37.472Z,1.80
2023-02-02T09:47:22.747Z,1.67
2023-02-02T09:50:15.501Z,1.60
2023-02-02T09:52:58.546Z,1.43
2023-02-02T09:55:37.056Z,1.33
2023-02-02T09:58:34.327Z,2.40
2023-02-02T10:01:18.382Z,3.00
2023-02-02T10:04:16.268Z,1.77
2023-02-02T10:06:46.321Z,2.10
2023-02-02T10:09:30.705Z,1.87
2023-02-02T10:12:30.057Z,1.50
2023-02-02T10:15:24.467Z,1.57
2023-02-02T10:18:27.208Z,1.50
2023-02-02T10:21:06.898Z,1.40
2023-02-02T10:23:44.528Z,1.97
2023-02-02T10:26:21.752Z,2.43
2023-02-02T10:29:08.966Z,1.70
2023-02-02T10:31:43.091Z,2.20
2023-02-02T10:34:45.561Z,1.80
2023-02-02T10:37:28.247Z,2.17
2023-02-02T10:40:14.890Z,1.73
2023-02-02T10:43:38.363Z,1.80
2023-02-02T10:46:12.758Z,2.00
2023-02-02T10:48:47.631Z,4.73
2023-02-02T10:51:29.333Z,2.90
2023-02-02T10:54:00.261Z,2.47
2023-02-02T10:56:38.719Z,2.00
2023-02-02T10:59:22.386Z,2.20
2023-02-02T11:01:49.802Z,2.67
2023-02-02T11:04:36.271Z,2.00
2023-02-02T11:07:03.207Z,2.00
2023-02-02T11:09:39.802Z,2.30
2023-02-02T11:12:23.243Z,1.90
2023-02-02T11:14:59.843Z,1.80
2023-02-02T11:17:26.795Z,2.30
2023-02-02T11:19:57.013Z,1.70
2023-02-02T11:22:38.672Z,1.80
2023-02-02T11:25:25.226Z,1.43
2023-02-02T11:27:52.106Z,1.87
2023-02-02T11:30:30.106Z,2.37
2023-02-02T11:32:57.529Z,3.23
2023-02-02T11:35:27.134Z,1.87
2023-02-02T11:38:17.771Z,2.10
2023-02-02T11:40:52.520Z,2.87
2023-02-02T11:43:41.206Z,1.73
2023-02-02T11:46:29.011Z,3.00
2023-02-02T11:49:03.911Z,1.90
2023-02-02T11:51:31.665Z,1.80
2023-02-02T11:54:16.309Z,2.97
2023-02-02T11:56:49.083Z,1.90
2023-02-02T11:59:42.922Z,3.03
2023-02-02T12:02:12.890Z,4.50
2023-02-02T12:04:41.016Z,19.43
2023-02-02T12:07:22.164Z,60.63
2023-02-02T12:09:50.937Z,38.03
2023-02-02T12:12:40.779Z,2.47
2023-02-02T12:15:20.013Z,3.10
2023-02-02T12:17:48.825Z,2.20
2023-02-02T12:20:16.843Z,2.30
2023-02-02T12:23:15.360Z,1.97
2023-02-02T12:26:12.635Z,10.17
2023-02-02T12:28:59.002Z,3.10
2023-02-02T12:31:59.927Z,2.50
2023-02-02T12:34:47.848Z,3.10
2023-02-02T12:37:47.717Z,21.60
2023-02-02T12:41:12.596Z,15.27
2023-02-02T12:43:47.609Z,15.67
2023-02-02T12:46:50.901Z,17.80
2023-02-02T12:49:54.584Z,14.20
2023-02-02T12:52:55.668Z,24.67
2023-02-02T12:55:59.906Z,13.53
2023-02-02T12:58:34.530Z,52.00
2023-02-02T13:01:13.880Z,29.43
2023-02-02T13:04:45.443Z,9.03
2023-02-02T13:07:37.181Z,5.50
2023-02-02T13:10:35.254Z,4.37
2023-02-02T13:13:14.209Z,3.43
2023-02-02T13:16:15.296Z,2.67
2023-02-02T13:19:02.468Z,3.10
2023-02-02T13:21:31.507Z,2.60
2023-02-02T13:24:04.300Z,3.43
2023-02-02T13:26:38.891Z,14.03
2023-02-02T13:29:24.878Z,7.10
2023-02-02T13:32:06.657Z,5.07
2023-02-02T13:34:51.473Z,2.87
2023-02-02T13:37:29.526Z,2.93
2023-02-02T13:40:03.383Z,3.90
2023-02-02T13:42:47.479Z,3.40
2023-02-02T13:45:35.876Z,2.33
2023-02-02T13:48:21.172Z,2.40
2023-02-02T13:51:12.580Z,2.90
2023-02-02T13:53:51.512Z,2.30
2023-02-02T13:56:53.373Z,2.80
2023-02-02T13:59:29.347Z,1.90
2023-02-02T14:01:58.659Z,10.73
2023-02-02T14:04:30.390Z,3.90
2023-02-02T14:07:07.293Z,2.57
2023-02-02T14:09:37.594Z,2.40
2023-02-02T14:12:12.464Z,2.00
2023-02-02T14:14:45.979Z,2.27
2023-02-02T14:17:19.336Z,2.70
2023-02-02T14:19:57.220Z,3.03
2023-02-02T14:22:54.553Z,1.97
2023-02-02T14:25:33.704Z,2.10
2023-02-02T14:28:10.511Z,2.10
2023-02-02T14:30:39.523Z,2.53
2023-02-02T14:33:38.785Z,2.23
2023-02-02T14:36:13.286Z,2.43
2023-02-02T14:38:58.245Z,6.67
2023-02-02T14:42:10.451Z,2.20
2023-02-02T14:44:38.534Z,2.40
2023-02-02T14:47:45.252Z,2.37
2023-02-02T14:50:39.232Z,2.40
2023-02-02T14:53:33.648Z,3.20
2023-02-02T14:56:10.739Z,3.00
2023-02-02T14:58:45.950Z,3.33
2023-02-02T15:01:22.796Z,2.73
2023-02-02T15:04:21.450Z,2.70
2023-02-02T15:06:52.552Z,3.40
2023-02-02T15:09:23.423Z,2.90
2023-02-02T15:12:01.010Z,3.10
2023-02-02T15:15:01.491Z,3.00
2023-02-02T15:17:40.685Z,2.70
2023-02-02T15:20:24.765Z,2.40
2023-02-02T15:23:24.520Z,3.70
2023-02-02T15:26:17.712Z,3.73
2023-02-02T15:28:56.157Z,2.47
2023-02-02T15:31:40.412Z,3.40
2023-02-02T15:34:41.312Z,3.10
2023-02-02T15:37:15.921Z,9.50
2023-02-02T15:39:49.107Z,11.13
2023-02-02T15:42:53.264Z,8.30
2023-02-02T15:45:49.906Z,8.03
2023-02-02T15:48:29.801Z,7.13
2023-02-02T15:51:01.026Z,8.70
2023-02-02T15:53:51.618Z,16.00
2023-02-02T15:56:24.583Z,17.27
2023-02-02T15:58:54.799Z,22.60
2023-02-02T16:01:24.777Z,22.70
2023-02-02T16:04:26.036Z,21.33
2023-02-02T16:06:55.048Z,14.43
2023-02-02T16:09:31.174Z,11.50
2023-02-02T16:11:58.179Z,5.50
2023-02-02T16:14:25.176Z,4.07
2023-02-02T16:16:52.174Z,4.37
2023-02-02T16:19:27.406Z,3.33
2023-02-02T16:22:02.106Z,4.43
2023-02-02T16:24:34.252Z,7.22
2023-02-02T16:27:06.053Z,5.07
2023-02-02T16:29:34.251Z,6.78
2023-02-02T16:32:01.712Z,6.00
2023-02-02T16:34:40.813Z,4.47
2023-02-02T16:37:37.390Z,4.30
2023-02-02T16:40:26.372Z,3.80
2023-02-02T16:43:06.378Z,5.07
2023-02-02T16:45:42.976Z,4.70
2023-02-02T16:48:37.929Z,4.53
2023-02-02T16:51:15.849Z,4.60
2023-02-02T16:54:14.040Z,5.40
2023-02-02T16:57:00.290Z,5.27
2023-02-02T16:59:37.855Z,4.50
2023-02-02T17:02:30.598Z,6.07
2023-02-02T17:05:28.066Z,6.67
2023-02-02T17:08:04.439Z,5.97
2023-02-02T17:10:37.514Z,6.30
2023-02-02T17:13:30.192Z,69.03
2023-02-02T17:15:58.927Z,14.10
2023-02-02T17:18:26.496Z,6.53
2023-02-02T17:20:57.863Z,6.40
2023-02-02T17:23:29.098Z,6.70
2023-02-02T17:25:56.702Z,6.30
2023-02-02T17:28:26.241Z,6.40
2023-02-02T17:31:00.952Z,6.47
2023-02-02T17:33:28.152Z,7.13
2023-02-02T17:35:56.530Z,8.50
2023-02-02T17:38:25.126Z,7.67
2023-02-02T17:40:53.041Z,7.10
2023-02-02T17:43:19.952Z,7.03
2023-02-02T17:45:47.286Z,7.10
2023-02-02T17:48:14.657Z,6.90
2023-02-02T17:50:43.062Z,6.77
2023-02-02T17:53:13.324Z,6.60
2023-02-02T17:55:43.120Z,7.30
2023-02-02T17:58:13.198Z,8.13
2023-02-02T18:00:41.889Z,8.40
2023-02-02T18:03:23.776Z,8.30
2023-02-02T18:05:51.348Z,10.00
2023-02-02T18:08:18.382Z,8.63
2023-02-02T18:10:45.396Z,70.67
2023-02-02T18:13:19.369Z,20.60
2023-02-02T18:15:47.005Z,10.30
2023-02-02T18:18:13.925Z,10.10
2023-02-02T18:20:49.524Z,10.73
2023-02-02T18:23:18.805Z,11.37
2023-02-02T18:25:45.895Z,9.63
2023-02-02T18:28:17.226Z,8.30
2023-02-02T18:30:46.796Z,9.03
2023-02-02T18:33:16.862Z,8.90
2023-02-02T18:35:47.923Z,11.43
2023-02-02T18:38:15.157Z,10.30
2023-02-02T18:40:42.242Z,9.90
2023-02-02T18:43:09.579Z,9.43
2023-02-02T18:45:36.906Z,9.60
2023-02-02T18:48:04.273Z,9.27
2023-02-02T18:50:31.282Z,10.60
2023-02-02T18:52:58.615Z,10.43
2023-02-02T18:55:26.754Z,10.33
2023-02-02T18:57:53.955Z,11.30
2023-02-02T19:00:22.055Z,14.97
2023-02-02T19:02:49.636Z,11.53
2023-02-02T19:05:35.629Z,11.60
2023-02-02T19:08:03.979Z,11.07
2023-02-02T19:10:31.347Z,13.67
2023-02-02T19:13:20.253Z,12.37
2023-02-02T19:15:49.571Z,14.53
2023-02-02T19:18:23.312Z,14.70
2023-02-02T19:20:52.481Z,13.97
2023-02-02T19:23:25.525Z,14.70
2023-02-02T19:25:55.910Z,15.90
2023-02-02T19:28:30.685Z,16.90
2023-02-02T19:31:01.153Z,15.70
2023-02-02T19:33:40.126Z,15.93
2023-02-02T19:36:30.735Z,17.37
2023-02-02T19:39:12.286Z,16.13
2023-02-02T19:41:42.334Z,16.97
2023-02-02T19:44:19.913Z,15.03
2023-02-02T19:46:50.787Z,16.00
2023-02-02T19:49:20.528Z,16.23
2023-02-02T19:51:54.152Z,17.30
2023-02-02T19:54:41.169Z,17.90
2023-02-02T19:57:13.920Z,18.20
2023-02-02T19:59:43.503Z,21.30
2023-02-02T20:02:29.655Z,22.67
2023-02-02T20:05:11.463Z,26.20
2023-02-02T20:07:39.322Z,25.30
2023-02-02T20:10:22.350Z,30.97
2023-02-02T20:12:51.084Z,31.80
2023-02-02T20:15:33.750Z,31.73
2023-02-02T20:18:05.545Z,28.30
2023-02-02T20:20:42.984Z,24.67
2023-02-02T20:23:39.678Z,33.57
2023-02-02T20:26:29.296Z,25.10
2023-02-02T20:29:00.379Z,19.53
2023-02-02T20:31:39.438Z,18.70
2023-02-02T20:34:28.093Z,20.17
2023-02-02T20:37:14.019Z,16.70
2023-02-02T20:39:47.615Z,22.77
2023-02-02T20:42:15.390Z,14.50
2023-02-02T20:44:42.314Z,16.80
2023-02-02T20:47:09.464Z,18.30
2023-02-02T20:49:37.714Z,16.43
2023-02-02T20:52:10.692Z,20.53
2023-02-02T20:54:39.080Z,17.60
2023-02-02T20:57:06.812Z,18.03
2023-02-02T20:59:33.709Z,18.67
2023-02-02T21:02:00.746Z,17.50
2023-02-02T21:04:28.096Z,18.97
2023-02-02T21:06:55.413Z,17.33
2023-02-02T21:09:22.771Z,17.57
2023-02-02T21:11:49.629Z,18.63
2023-02-02T21:14:16.730Z,17.10
2023-02-02T21:16:43.679Z,20.77
2023-02-02T21:19:10.723Z,20.47
2023-02-02T21:21:37.671Z,19.30
2023-02-02T21:24:05.119Z,20.83
2023-02-02T21:26:31.979Z,20.27
2023-02-02T21:28:59.243Z,20.00
2023-02-02T21:31:27.315Z,17.57
2023-02-02T21:33:54.331Z,21.97
2023-02-02T21:36:45.186Z,21.70
2023-02-02T21:39:35.820Z,20.17
2023-02-02T21:42:08.801Z,20.60
2023-02-02T21:44:45.613Z,22.43
2023-02-02T21:47:35.816Z,23.53
2023-02-02T21:50:15.901Z,24.17
2023-02-02T21:52:43.100Z,18.27
2023-02-02T21:55:33.911Z,22.30
2023-02-02T21:58:27.686Z,17.53
2023-02-02T22:00:59.267Z,22.13
2023-02-02T22:03:36.922Z,21.90
2023-02-02T22:06:28.457Z,22.80
2023-02-02T22:09:12.782Z,25.10
2023-02-02T22:11:51.699Z,24.30
2023-02-02T22:14:36.881Z,22.90
2023-02-02T22:17:24.236Z,20.97
2023-02-02T22:20:17.365Z,17.37
2023-02-02T22:22:50.439Z,23.70
2023-02-02T22:25:17.199Z,25.27
2023-02-02T22:27:51.774Z,26.07
2023-02-02T22:30:41.083Z,24.10
2023-02-02T22:33:11.006Z,26.20
2023-02-02T22:35:38.377Z,25.37
2023-02-02T22:38:06.056Z,25.00
2023-02-02T22:40:33.067Z,25.70
2023-02-02T22:43:02.813Z,27.73
2023-02-02T22:45:29.772Z,23.90
2023-02-02T22:47:56.637Z,18.00
2023-02-02T22:50:27.458Z,27.53
2023-02-02T22:52:54.955Z,29.03
2023-02-02T22:55:22.335Z,28.33
2023-02-02T22:57:49.403Z,27.57
2023-02-02T23:00:29.204Z,28.70
2023-02-02T23:02:56.681Z,28.73
2023-02-02T23:05:25.410Z,27.73
2023-02-02T23:07:53.473Z,20.77
2023-02-02T23:10:24.997Z,27.50
2023-02-02T23:12:54.885Z,27.20
2023-02-02T23:15:21.919Z,29.23
2023-02-02T23:17:48.891Z,28.00
2023-02-02T23:20:16.233Z,22.57
2023-02-02T23:22:43.435Z,22.43
2023-02-02T23:25:11.963Z,25.47
2023-02-02T23:27:39.381Z,25.60
2023-02-02T23:30:08.852Z,27.70
2023-02-02T23:32:36.033Z,25.30
2023-02-02T23:35:03.581Z,24.27
2023-02-02T23:37:30.518Z,24.60
2023-02-02T23:39:57.484Z,17.80
2023-02-02T23:42:25.581Z,24.03
2023-02-02T23:44:53.034Z,25.53
2023-02-02T23:47:20.210Z,18.63
2023-02-02T23:49:47.296Z,16.80
2023-02-02T23:52:14.879Z,21.50
2023-02-02T23:54:42.096Z,23.77
2023-02-02T23:57:09.227Z,23.90
2023-02-02T23:59:36.368Z,22.87
